עמוד ראשי
METAR-TAF:

METAR-TAF

שדות תעופה :

Rafha, ערב הסעודית

קו רוחב: 29-37N, קו אורך: 043-29E, גובה: 449מטר

תצפית מזג אוויר נוכחית

הדו"ח נערך לפני 1 שעות ו 14דקות, בשעה 13:00 UTC
רוח 11קשר מכיוון צפון/צפון-מערב
טמפרטורת 45 צלסיוס
לחות 7%
לחץ 1002 hPa
ראות 10 קילומטר או יותר
ללא עננים שבסיסם נמוך מ 5000 רגל או קומולונימבוס

METAR: OERF 181300Z 33011KT CAVOK 45/01 Q1002 NOSIG

זמן: 17:14 (14:14 UTC)

תחזית

הדו"ח נערך לפני 3 שעות ו 14דקות, בשעה 11:00 UTC
תחזית בתוקף מ 18 ב 12 UTC עד 19 ב 18 UTC
רוח 10קשר מכיוון צפון
ראות 10 קילומטר או יותר
ללא עננים שבסיסם נמוך מ 5000 רגל או קומולונימבוס
יעשה מ
18 ב 18 UTC עד 18 ב 20 UTC
רוח 6קשר מכיוון מערב
יעשה מ
19 ב 04 UTC עד 19 ב 06 UTC
רוח 10קשר מכיוון צפון

TAF: OERF 181100Z 1812/1918 35010KT CAVOK BECMG 1818/1820 28006KT BECMG 1904/1906 35010KT

תצפיות ותחזיות מזג אוויר לגבי יותר מ- 4,000 שדות תעופה ברחבי העולם. דוחות METAR ו- TAF.

התחנות הזמינות מסומנות בנקודות צהובות ואדומות על גבי המפה.

העבר את העכבר לנקודה הצבעונית על מנת לראות את שם התחנה.

לאחר מכן, לחץ כדי לראות את תוכן ואת תחזיות מזג האוויר.

כדי לשנות את המפה: לחץ על הכפתורים הירוקים עם הפלוס השחור כדי להתקרב; על הכפתור הירוק עם המקף כדי להתרחק; או בחיצים הירוקים למפות סמוכות.


METAR-TAF: